createdAt,value
2022-11-04T00:01:22.479Z,35.35
2022-11-04T00:02:54.268Z,46.15
2022-11-04T00:04:28.043Z,19.17
2022-11-04T00:06:01.366Z,22.20
2022-11-04T00:07:51.664Z,27.35
2022-11-04T00:09:28.933Z,26.90
2022-11-04T00:11:19.638Z,33.17
2022-11-04T00:12:53.020Z,28.03
2022-11-04T00:14:24.819Z,31.25
2022-11-04T00:16:20.282Z,25.23
2022-11-04T00:17:52.012Z,35.17
2022-11-04T00:19:24.490Z,28.42
2022-11-04T00:21:15.867Z,28.52
2022-11-04T00:23:07.076Z,36.83
2022-11-04T00:26:47.745Z,102.88
2022-11-04T00:28:39.072Z,37.95
2022-11-04T00:30:11.195Z,47.22
2022-11-04T00:32:01.415Z,27.85
2022-11-04T00:33:33.140Z,42.72
2022-11-04T00:35:05.320Z,38.70
2022-11-04T00:36:37.040Z,32.08
2022-11-04T00:38:09.039Z,27.15
2022-11-04T00:39:41.057Z,39.40
2022-11-04T00:41:30.058Z,28.70
2022-11-04T00:43:02.133Z,34.67
2022-11-04T00:44:33.876Z,26.00
2022-11-04T00:46:05.773Z,28.33
2022-11-04T00:47:37.591Z,31.65
2022-11-04T00:49:09.333Z,25.02
2022-11-04T00:50:42.312Z,25.67
2022-11-04T00:52:14.018Z,29.02
2022-11-04T00:53:45.899Z,28.27
2022-11-04T00:55:17.615Z,31.27
2022-11-04T00:56:49.553Z,31.42
2022-11-04T00:58:21.283Z,34.97
2022-11-04T00:59:53.071Z,39.90
2022-11-04T01:01:25.131Z,29.10
2022-11-04T01:02:57.701Z,32.53
2022-11-04T01:04:29.486Z,32.85
2022-11-04T01:06:01.236Z,30.08
2022-11-04T01:07:32.955Z,34.35
2022-11-04T01:09:10.837Z,33.50
2022-11-04T01:10:44.830Z,41.60
2022-11-04T01:12:17.117Z,28.67
2022-11-04T01:13:52.055Z,29.88
2022-11-04T01:15:23.787Z,26.35
2022-11-04T01:16:55.754Z,35.58
2022-11-04T01:18:28.221Z,31.60
2022-11-04T01:19:59.936Z,29.25
2022-11-04T01:21:31.700Z,31.58
2022-11-04T01:23:03.471Z,29.25
2022-11-04T01:24:35.207Z,32.95
2022-11-04T01:26:09.665Z,32.95
2022-11-04T01:27:41.425Z,27.13
2022-11-04T01:29:13.293Z,31.88
2022-11-04T01:30:45.034Z,34.75
2022-11-04T01:32:16.817Z,32.88
2022-11-04T01:33:49.808Z,28.05
2022-11-04T01:35:21.555Z,28.52
2022-11-04T01:36:53.273Z,30.67
2022-11-04T01:38:25.165Z,37.08
2022-11-04T01:39:56.876Z,32.20
2022-11-04T01:41:31.806Z,36.13
2022-11-04T01:43:03.807Z,37.15
2022-11-04T01:44:41.549Z,35.08
2022-11-04T01:46:39.557Z,37.72
2022-11-04T01:48:19.721Z,56.60
2022-11-04T01:50:07.097Z,40.08
2022-11-04T01:51:42.072Z,43.25
2022-11-04T01:53:19.110Z,41.50
2022-11-04T01:54:53.976Z,38.97
2022-11-04T01:56:27.757Z,46.90
2022-11-04T01:58:10.878Z,41.38
2022-11-04T01:59:42.941Z,31.27
2022-11-04T02:01:15.328Z,33.10
2022-11-04T02:03:08.671Z,32.22
2022-11-04T02:04:42.241Z,35.30
2022-11-04T02:06:14.772Z,28.65
2022-11-04T02:07:52.162Z,35.83
2022-11-04T02:09:26.241Z,32.88
2022-11-04T02:11:03.468Z,38.17
2022-11-04T02:12:50.396Z,36.38
2022-11-04T02:14:22.278Z,38.05
2022-11-04T02:16:06.457Z,35.00
2022-11-04T02:17:41.152Z,31.77
2022-11-04T02:19:31.788Z,31.30
2022-11-04T02:21:17.563Z,40.65
2022-11-04T02:23:13.953Z,35.88
2022-11-04T02:25:23.310Z,49.30
2022-11-04T02:27:15.696Z,40.58
2022-11-04T02:29:16.588Z,41.33
2022-11-04T02:30:54.693Z,47.13
2022-11-04T02:33:00.831Z,39.97
2022-11-04T02:35:10.083Z,40.97
2022-11-04T02:37:00.243Z,46.35
2022-11-04T02:38:45.453Z,35.28
2022-11-04T02:40:58.089Z,51.83
2022-11-04T02:42:33.392Z,52.38
2022-11-04T02:44:15.189Z,38.10
2022-11-04T02:45:50.551Z,37.88
2022-11-04T02:47:28.601Z,32.70
2022-11-04T02:49:08.965Z,31.38
2022-11-04T02:50:49.874Z,39.83
2022-11-04T02:52:39.786Z,36.72
2022-11-04T02:54:35.578Z,37.95
2022-11-04T02:56:09.749Z,45.67
2022-11-04T02:57:44.415Z,39.35
2022-11-04T02:59:29.852Z,36.78
2022-11-04T03:01:05.199Z,40.95
2022-11-04T03:02:43.069Z,31.13
2022-11-04T03:04:18.092Z,31.55
2022-11-04T03:05:53.535Z,39.63
2022-11-04T03:07:31.654Z,33.55
2022-11-04T03:09:04.332Z,37.70
2022-11-04T03:10:42.033Z,32.42
2022-11-04T03:12:18.320Z,31.55
2022-11-04T03:13:57.900Z,44.85
2022-11-04T03:15:33.276Z,33.58
2022-11-04T03:17:08.458Z,29.98
2022-11-04T03:18:48.143Z,36.45
2022-11-04T03:20:25.341Z,37.40
2022-11-04T03:22:11.444Z,37.75
2022-11-04T03:23:43.672Z,38.60
2022-11-04T03:25:15.936Z,38.55
2022-11-04T03:26:52.300Z,33.33
2022-11-04T03:28:35.378Z,40.97
2022-11-04T03:30:09.258Z,43.38
2022-11-04T03:31:49.695Z,39.47
2022-11-04T03:33:40.485Z,43.90
2022-11-04T03:35:13.883Z,52.67
2022-11-04T03:36:45.677Z,44.17
2022-11-04T03:38:17.506Z,53.10
2022-11-04T03:39:49.307Z,48.08
2022-11-04T03:41:47.972Z,48.38
2022-11-04T03:43:27.415Z,58.60
2022-11-04T03:44:59.968Z,50.42
2022-11-04T03:46:31.730Z,39.72
2022-11-04T03:48:03.906Z,39.20
2022-11-04T03:49:35.736Z,39.20
2022-11-04T03:51:09.510Z,37.17
2022-11-04T03:52:41.267Z,39.13
2022-11-04T03:54:14.197Z,45.75
2022-11-04T03:56:07.503Z,41.78
2022-11-04T03:57:48.426Z,54.17
2022-11-04T03:59:45.581Z,48.83
2022-11-04T04:01:52.822Z,57.58
2022-11-04T04:03:32.816Z,58.70
2022-11-04T04:05:18.696Z,42.22
2022-11-04T04:06:54.053Z,46.75
2022-11-04T04:08:41.345Z,44.55
2022-11-04T04:10:39.416Z,42.83
2022-11-04T04:12:28.009Z,45.33
2022-11-04T04:14:07.399Z,45.03
2022-11-04T04:16:17.186Z,42.08
2022-11-04T04:18:21.097Z,51.15
2022-11-04T04:19:57.560Z,50.13
2022-11-04T04:21:35.859Z,37.80
2022-11-04T04:23:32.164Z,39.40
2022-11-04T04:25:27.618Z,42.72
2022-11-04T04:27:19.787Z,44.60
2022-11-04T04:28:55.455Z,44.95
2022-11-04T04:30:27.355Z,42.03
2022-11-04T04:32:00.762Z,37.63
2022-11-04T04:33:32.541Z,38.03
2022-11-04T04:35:22.897Z,36.85
2022-11-04T04:36:58.889Z,42.40
2022-11-04T04:38:51.579Z,40.90
2022-11-04T04:41:00.444Z,38.55
2022-11-04T04:42:52.099Z,38.17
2022-11-04T04:44:44.743Z,38.70
2022-11-04T04:46:16.672Z,38.15
2022-11-04T04:47:48.573Z,37.67
2022-11-04T04:49:20.293Z,37.55
2022-11-04T04:50:57.099Z,33.90
2022-11-04T04:52:36.816Z,36.30
2022-11-04T04:54:08.815Z,35.40
2022-11-04T04:55:41.767Z,36.47
2022-11-04T04:57:13.944Z,36.75
2022-11-04T04:58:45.659Z,33.70
2022-11-04T05:00:21.261Z,38.50
2022-11-04T05:01:53.369Z,34.40
2022-11-04T05:03:25.295Z,35.00
2022-11-04T05:04:57.034Z,31.17
2022-11-04T05:06:28.778Z,31.55
2022-11-04T05:08:07.727Z,31.88
2022-11-04T05:09:40.015Z,36.70
2022-11-04T05:11:12.189Z,39.25
2022-11-04T05:13:03.753Z,37.72
2022-11-04T05:16:10.189Z,65.22
2022-11-04T05:17:41.949Z,43.75
2022-11-04T05:19:13.689Z,40.33
2022-11-04T05:20:45.484Z,35.47
2022-11-04T05:22:17.237Z,34.90
2022-11-04T05:23:49.020Z,42.55
2022-11-04T05:25:20.883Z,37.67
2022-11-04T05:26:52.801Z,40.20
2022-11-04T05:28:24.708Z,38.92
2022-11-04T05:29:56.453Z,35.65
2022-11-04T05:31:29.268Z,38.45
2022-11-04T05:33:04.681Z,40.20
2022-11-04T05:34:37.105Z,44.60
2022-11-04T05:36:14.578Z,38.88
2022-11-04T05:37:46.262Z,39.90
2022-11-04T05:39:18.048Z,33.72
2022-11-04T05:40:52.551Z,33.78
2022-11-04T05:42:24.356Z,35.83
2022-11-04T05:43:58.529Z,38.42
2022-11-04T05:45:30.430Z,35.10
2022-11-04T05:47:02.144Z,35.53
2022-11-04T05:48:39.258Z,37.25
2022-11-04T05:50:12.222Z,42.63
2022-11-04T05:51:44.645Z,36.88
2022-11-04T05:53:16.444Z,38.50
2022-11-04T05:54:48.341Z,35.72
2022-11-04T05:56:20.096Z,44.35
2022-11-04T05:57:52.404Z,35.63
2022-11-04T05:59:24.135Z,39.60
2022-11-04T06:01:14.726Z,37.47
2022-11-04T06:02:46.643Z,42.67
2022-11-04T06:04:19.432Z,36.88
2022-11-04T06:05:51.153Z,38.45
2022-11-04T06:07:22.873Z,36.80
2022-11-04T06:08:54.893Z,35.30
2022-11-04T06:10:26.742Z,35.95
2022-11-04T06:11:58.466Z,35.30
2022-11-04T06:13:30.222Z,36.10
2022-11-04T06:15:02.033Z,31.58
2022-11-04T06:16:33.759Z,38.50
2022-11-04T06:18:05.660Z,36.47
2022-11-04T06:19:37.597Z,36.88
2022-11-04T06:21:14.799Z,40.58
2022-11-04T06:22:46.542Z,38.67
2022-11-04T06:24:18.275Z,33.75
2022-11-04T06:25:52.998Z,35.70
2022-11-04T06:27:24.780Z,32.35
2022-11-04T06:28:57.686Z,31.50
2022-11-04T06:30:29.415Z,32.40
2022-11-04T06:32:01.125Z,30.27
2022-11-04T06:33:36.773Z,30.98
2022-11-04T06:35:09.208Z,31.15
2022-11-04T06:36:40.948Z,32.08
2022-11-04T06:38:12.671Z,30.67
2022-11-04T06:39:44.456Z,29.20
2022-11-04T06:41:17.497Z,34.70
2022-11-04T06:42:50.653Z,33.13
2022-11-04T06:44:22.919Z,31.65
2022-11-04T06:45:59.034Z,29.55
2022-11-04T06:47:30.778Z,31.17
2022-11-04T06:49:03.487Z,32.53
2022-11-04T06:50:35.239Z,35.05
2022-11-04T06:52:06.982Z,30.30
2022-11-04T06:53:38.734Z,31.20
2022-11-04T06:55:10.981Z,28.95
2022-11-04T06:56:44.499Z,30.65
2022-11-04T06:58:16.887Z,26.80
2022-11-04T06:59:48.636Z,26.60
2022-11-04T07:01:22.673Z,27.00
2022-11-04T07:02:54.698Z,28.95
2022-11-04T07:04:26.447Z,27.00
2022-11-04T07:05:58.172Z,27.50
2022-11-04T07:07:29.938Z,25.70
2022-11-04T07:09:02.424Z,25.65
2022-11-04T07:10:34.305Z,26.80
2022-11-04T07:12:06.024Z,23.13
2022-11-04T07:13:37.826Z,22.80
2022-11-04T07:15:10.359Z,23.52
2022-11-04T07:16:42.100Z,23.52
2022-11-04T07:18:13.834Z,22.60
2022-11-04T07:19:45.568Z,23.13
2022-11-04T07:21:17.507Z,21.25
2022-11-04T07:22:49.233Z,22.38
2022-11-04T07:24:21.089Z,24.05
2022-11-04T07:25:54.397Z,23.23
2022-11-04T07:27:26.098Z,21.00
2022-11-04T07:29:00.124Z,23.48
2022-11-04T07:30:32.236Z,20.58
2022-11-04T07:32:04.577Z,22.45
2022-11-04T07:33:36.380Z,19.27
2022-11-04T07:35:08.583Z,21.35
2022-11-04T07:36:40.299Z,20.88
2022-11-04T07:38:12.250Z,18.63
2022-11-04T07:39:44.078Z,19.67
2022-11-04T07:41:18.191Z,20.25
2022-11-04T07:42:50.029Z,20.48
2022-11-04T07:44:23.820Z,21.15
2022-11-04T07:46:03.997Z,19.20
2022-11-04T07:47:35.908Z,20.55
2022-11-04T07:49:08.150Z,24.60
2022-11-04T07:50:40.723Z,16.63
2022-11-04T07:52:12.590Z,17.77
2022-11-04T07:53:45.004Z,18.50
2022-11-04T07:55:18.692Z,20.48
2022-11-04T07:56:50.553Z,17.38
2022-11-04T07:58:23.192Z,18.67
2022-11-04T07:59:54.977Z,16.58
2022-11-04T08:01:26.939Z,19.40
2022-11-04T08:02:58.742Z,19.27
2022-11-04T08:04:30.592Z,17.33
2022-11-04T08:06:04.161Z,16.65
2022-11-04T08:07:35.959Z,17.00
2022-11-04T08:09:07.800Z,16.92
2022-11-04T08:10:40.141Z,20.98
2022-11-04T08:12:11.884Z,15.13
2022-11-04T08:13:44.183Z,17.30
2022-11-04T08:15:15.992Z,15.93
2022-11-04T08:16:51.003Z,17.05
2022-11-04T08:18:23.097Z,18.23
2022-11-04T08:19:54.839Z,20.55
2022-11-04T08:21:26.592Z,15.23
2022-11-04T08:22:58.319Z,15.18
2022-11-04T08:24:30.078Z,21.48
2022-11-04T08:26:02.221Z,16.08
2022-11-04T08:27:34.749Z,17.90
2022-11-04T08:29:08.123Z,18.60
2022-11-04T08:30:39.912Z,19.48
2022-11-04T08:32:11.669Z,17.70
2022-11-04T08:33:44.709Z,14.98
2022-11-04T08:35:16.516Z,17.25
2022-11-04T08:36:48.760Z,17.05
2022-11-04T08:38:20.597Z,15.23
2022-11-04T08:39:52.344Z,15.65
2022-11-04T08:41:29.715Z,13.63
2022-11-04T08:43:01.709Z,15.18
2022-11-04T08:44:34.198Z,16.55
2022-11-04T08:46:07.924Z,17.23
2022-11-04T08:47:39.950Z,17.30
2022-11-04T08:49:14.931Z,19.60
2022-11-04T08:50:55.375Z,18.08
2022-11-04T08:52:27.162Z,20.48
2022-11-04T08:53:59.693Z,16.90
2022-11-04T08:55:32.421Z,17.05
2022-11-04T08:57:04.363Z,17.13
2022-11-04T08:58:36.111Z,16.38
2022-11-04T09:00:08.319Z,16.65
2022-11-04T09:01:40.175Z,16.90
2022-11-04T09:03:12.551Z,15.35
2022-11-04T09:04:44.539Z,15.98
2022-11-04T09:06:21.451Z,14.07
2022-11-04T09:07:53.203Z,18.83
2022-11-04T09:09:24.956Z,14.57
2022-11-04T09:10:56.713Z,15.55
2022-11-04T09:12:28.447Z,14.43
2022-11-04T09:14:01.385Z,16.95
2022-11-04T09:15:33.164Z,18.83
2022-11-04T09:17:05.003Z,18.05
2022-11-04T09:18:36.731Z,14.88
2022-11-04T09:20:08.899Z,16.80
2022-11-04T09:21:40.776Z,15.25
2022-11-04T09:23:12.752Z,17.45
2022-11-04T09:24:44.644Z,15.88
2022-11-04T09:26:17.531Z,19.30
2022-11-04T09:27:49.379Z,15.68
2022-11-04T09:29:21.431Z,15.80
2022-11-04T09:30:53.149Z,17.98
2022-11-04T09:32:24.996Z,16.45
2022-11-04T09:33:57.050Z,17.17
2022-11-04T09:35:28.835Z,15.68
2022-11-04T09:37:00.997Z,18.52
2022-11-04T09:38:33.277Z,17.23
2022-11-04T09:40:05.707Z,17.55
2022-11-04T09:42:01.371Z,16.23
2022-11-04T09:43:54.970Z,19.75
2022-11-04T09:45:31.866Z,19.92
2022-11-04T09:47:04.361Z,17.05
2022-11-04T09:48:47.232Z,16.48
2022-11-04T09:50:27.265Z,19.38
2022-11-04T09:52:01.106Z,19.95
2022-11-04T09:53:49.791Z,21.70
2022-11-04T09:55:29.499Z,21.67
2022-11-04T09:57:02.774Z,18.60
2022-11-04T09:58:38.492Z,18.60
2022-11-04T10:00:16.397Z,18.52
2022-11-04T10:02:10.213Z,16.13
2022-11-04T10:04:18.160Z,19.13
2022-11-04T10:06:27.321Z,19.38
2022-11-04T10:08:20.503Z,20.88
2022-11-04T10:10:10.256Z,17.95
2022-11-04T10:11:49.557Z,21.30
2022-11-04T10:13:58.560Z,20.58
2022-11-04T10:15:44.486Z,17.98
2022-11-04T10:17:31.387Z,18.35
2022-11-04T10:19:12.631Z,20.25
2022-11-04T10:20:57.029Z,20.00
2022-11-04T10:22:33.976Z,19.23
2022-11-04T10:24:17.515Z,18.15
2022-11-04T10:26:11.133Z,20.05
2022-11-04T10:27:46.261Z,20.73
2022-11-04T10:29:48.415Z,18.98
2022-11-04T10:31:20.228Z,20.35
2022-11-04T10:32:59.674Z,23.15
2022-11-04T10:34:31.363Z,19.02
2022-11-04T10:36:07.201Z,17.00
2022-11-04T10:37:39.253Z,19.98
2022-11-04T10:39:23.242Z,17.38
2022-11-04T10:40:55.844Z,21.30
2022-11-04T10:42:27.634Z,18.95
2022-11-04T10:44:21.315Z,17.95
2022-11-04T10:46:35.618Z,18.75
2022-11-04T10:48:22.584Z,22.98
2022-11-04T10:50:29.829Z,18.70
2022-11-04T10:52:02.499Z,22.83
2022-11-04T10:53:34.560Z,18.10
2022-11-04T10:55:35.441Z,16.42
2022-11-04T10:57:07.341Z,23.50
2022-11-04T10:58:46.516Z,16.63
2022-11-04T11:00:38.765Z,19.75
2022-11-04T11:02:10.640Z,20.85
2022-11-04T11:03:43.484Z,20.95
2022-11-04T11:05:17.993Z,16.50
2022-11-04T11:06:50.552Z,21.45
2022-11-04T11:08:33.469Z,17.77
2022-11-04T11:10:05.637Z,16.13
2022-11-04T11:11:49.455Z,16.55
2022-11-04T11:13:27.637Z,18.75
2022-11-04T11:14:59.647Z,17.05
2022-11-04T11:16:32.130Z,17.63
2022-11-04T11:18:06.873Z,14.35
2022-11-04T11:19:47.880Z,16.85
2022-11-04T11:21:23.406Z,21.90
2022-11-04T11:23:01.929Z,19.02
2022-11-04T11:24:36.421Z,17.70
2022-11-04T11:26:12.840Z,18.38
2022-11-04T11:28:19.899Z,21.02
2022-11-04T11:29:56.339Z,22.92
2022-11-04T11:31:39.275Z,25.45
2022-11-04T11:33:30.543Z,23.38
2022-11-04T11:35:07.743Z,24.58
2022-11-04T11:36:44.827Z,20.40
2022-11-04T11:38:27.686Z,20.55
2022-11-04T11:39:59.870Z,19.73
2022-11-04T11:41:52.912Z,18.23
2022-11-04T11:43:31.881Z,21.23
2022-11-04T11:45:10.605Z,17.45
2022-11-04T11:46:42.781Z,23.83
2022-11-04T11:48:32.484Z,16.45
2022-11-04T11:50:19.344Z,17.67
2022-11-04T11:51:51.176Z,14.90
2022-11-04T11:53:24.545Z,22.48
2022-11-04T11:55:05.228Z,21.00
2022-11-04T11:57:07.344Z,25.88
2022-11-04T12:01:03.126Z,18.95
2022-11-04T12:02:43.237Z,22.20
2022-11-04T12:06:19.080Z,17.55
2022-11-04T12:10:48.623Z,16.58
2022-11-04T12:12:21.759Z,17.00
2022-11-04T12:13:57.128Z,15.90
2022-11-04T12:15:49.204Z,16.33
2022-11-04T12:17:23.932Z,18.55
2022-11-04T12:19:17.276Z,14.98
2022-11-04T12:21:00.976Z,12.82
2022-11-04T12:23:08.668Z,12.18
2022-11-04T12:25:24.184Z,14.75
2022-11-04T12:26:55.912Z,18.95
2022-11-04T12:28:53.593Z,14.40
2022-11-04T12:30:32.245Z,16.50
2022-11-04T12:32:23.787Z,14.65
2022-11-04T12:34:24.840Z,16.30
2022-11-04T12:36:22.878Z,17.77
2022-11-04T12:38:26.543Z,15.52
2022-11-04T12:40:13.361Z,16.85
2022-11-04T12:42:20.556Z,15.98
2022-11-04T12:44:12.397Z,18.73
2022-11-04T12:46:12.477Z,16.73
2022-11-04T12:47:46.481Z,17.40
2022-11-04T12:49:33.485Z,14.38
2022-11-04T12:51:13.563Z,18.77
2022-11-04T12:53:23.115Z,15.75
2022-11-04T12:55:04.311Z,16.80
2022-11-04T12:56:38.467Z,16.42
2022-11-04T12:58:16.357Z,12.60
2022-11-04T13:00:00.925Z,15.18
2022-11-04T13:01:50.573Z,15.30
2022-11-04T13:03:55.890Z,15.57
2022-11-04T13:06:05.916Z,15.63
2022-11-04T13:07:46.735Z,15.90
2022-11-04T13:09:33.606Z,15.68
2022-11-04T13:11:29.885Z,19.27
2022-11-04T13:13:03.233Z,16.05
2022-11-04T13:14:48.448Z,14.90
2022-11-04T13:16:21.170Z,15.15
2022-11-04T13:17:59.878Z,14.30
2022-11-04T13:19:48.769Z,15.68
2022-11-04T13:21:27.835Z,14.05
2022-11-04T13:23:05.101Z,14.30
2022-11-04T13:24:40.481Z,11.50
2022-11-04T13:26:15.776Z,14.70
2022-11-04T13:27:50.734Z,14.75
2022-11-04T13:29:25.838Z,13.70
2022-11-04T13:31:20.894Z,15.35
2022-11-04T13:33:09.301Z,15.65
2022-11-04T13:34:48.003Z,15.32
2022-11-04T13:36:48.603Z,18.13
2022-11-04T13:38:37.318Z,15.80
2022-11-04T13:40:18.188Z,14.57
2022-11-04T13:42:36.073Z,15.25
2022-11-04T13:44:39.879Z,18.00
2022-11-04T13:46:11.578Z,11.95
2022-11-04T13:47:56.565Z,16.05
2022-11-04T13:49:33.653Z,14.10
2022-11-04T13:51:07.830Z,16.92
2022-11-04T13:52:52.528Z,16.92
2022-11-04T13:54:27.305Z,15.68
2022-11-04T13:56:20.911Z,12.43
2022-11-04T13:57:58.275Z,15.98
2022-11-04T13:59:31.145Z,15.38
2022-11-04T14:01:26.018Z,14.45
2022-11-04T14:03:00.448Z,15.80
2022-11-04T14:04:32.328Z,16.35
2022-11-04T14:06:08.476Z,15.60
2022-11-04T14:08:02.108Z,13.68
2022-11-04T14:09:51.639Z,18.77
2022-11-04T14:11:23.415Z,17.15
2022-11-04T14:13:30.458Z,14.38
2022-11-04T14:15:11.845Z,20.65
2022-11-04T14:18:32.821Z,21.63
2022-11-04T14:20:21.889Z,17.77
2022-11-04T14:22:09.963Z,18.13
2022-11-04T14:23:54.046Z,18.20
2022-11-04T14:25:48.854Z,17.17
2022-11-04T14:27:41.258Z,16.35
2022-11-04T14:29:22.407Z,16.30
2022-11-04T14:30:54.142Z,21.52
2022-11-04T14:32:31.777Z,16.30
2022-11-04T14:34:05.836Z,16.48
2022-11-04T14:35:37.937Z,15.68
2022-11-04T14:37:15.605Z,15.93
2022-11-04T14:38:53.267Z,16.95
2022-11-04T14:40:29.370Z,14.77
2022-11-04T14:42:03.895Z,14.52
2022-11-04T14:43:36.106Z,15.02
2022-11-04T14:45:11.994Z,15.27
2022-11-04T14:46:48.711Z,14.73
2022-11-04T14:48:21.453Z,15.45
2022-11-04T14:49:58.968Z,17.65
2022-11-04T14:51:33.683Z,15.80
2022-11-04T14:53:06.344Z,17.00
2022-11-04T14:54:38.438Z,15.45
2022-11-04T14:56:23.785Z,14.68
2022-11-04T14:58:00.767Z,15.20
2022-11-04T14:59:32.537Z,15.60
2022-11-04T15:01:05.334Z,15.95
2022-11-04T15:02:37.180Z,13.60
2022-11-04T15:04:25.275Z,16.60
2022-11-04T15:06:00.723Z,16.27
2022-11-04T15:07:34.272Z,14.63
2022-11-04T15:09:20.852Z,15.40
2022-11-04T15:11:02.731Z,17.35
2022-11-04T15:12:52.601Z,16.67
2022-11-04T15:14:26.960Z,15.80
2022-11-04T15:15:58.896Z,16.15
2022-11-04T15:17:33.548Z,15.90
2022-11-04T15:19:10.136Z,17.65
2022-11-04T15:20:59.372Z,19.75
2022-11-04T15:22:31.268Z,19.05
2022-11-04T15:24:03.178Z,19.80
2022-11-04T15:25:35.194Z,16.63
2022-11-04T15:27:07.415Z,20.48
2022-11-04T15:28:46.733Z,16.42
2022-11-04T15:30:28.306Z,20.20
2022-11-04T15:32:05.631Z,18.35
2022-11-04T15:33:53.171Z,19.17
2022-11-04T15:35:25.760Z,21.65
2022-11-04T15:37:05.641Z,16.80
2022-11-04T15:38:41.723Z,19.30
2022-11-04T15:40:15.394Z,19.58
2022-11-04T15:42:08.489Z,19.15
2022-11-04T15:43:40.306Z,20.33
2022-11-04T15:45:38.020Z,19.88
2022-11-04T15:47:18.715Z,21.52
2022-11-04T15:49:01.247Z,18.92
2022-11-04T15:50:33.073Z,23.05
2022-11-04T15:52:07.264Z,17.55
2022-11-04T15:53:49.741Z,17.20
2022-11-04T15:55:24.772Z,22.67
2022-11-04T15:57:01.025Z,17.23
2022-11-04T15:58:34.310Z,19.65
2022-11-04T16:00:09.971Z,18.15
2022-11-04T16:01:47.040Z,18.40
2022-11-04T16:03:21.357Z,16.10
2022-11-04T16:05:06.052Z,19.55
2022-11-04T16:06:43.995Z,19.08
2022-11-04T16:08:24.372Z,21.38
2022-11-04T16:09:56.130Z,20.90
2022-11-04T16:11:27.964Z,18.05
2022-11-04T16:13:16.559Z,19.45
2022-11-04T16:14:53.768Z,24.10
2022-11-04T16:16:27.366Z,16.80
2022-11-04T16:17:59.245Z,19.67
2022-11-04T16:19:32.332Z,20.80
2022-11-04T16:21:11.073Z,18.38
2022-11-04T16:22:43.874Z,19.10
2022-11-04T16:24:29.696Z,17.58
2022-11-04T16:26:05.914Z,19.60
2022-11-04T16:27:37.956Z,19.42
2022-11-04T16:29:25.643Z,17.88
2022-11-04T16:31:04.247Z,20.63
2022-11-04T16:32:47.899Z,21.85
2022-11-04T16:34:19.628Z,20.77
2022-11-04T16:35:51.605Z,19.02
2022-11-04T16:37:23.408Z,19.23
2022-11-04T16:39:00.689Z,18.58
2022-11-04T16:40:33.564Z,20.15
2022-11-04T16:42:06.513Z,18.40
2022-11-04T16:43:41.766Z,17.67
2022-11-04T16:45:27.256Z,18.55
2022-11-04T16:47:00.273Z,22.05
2022-11-04T16:48:32.143Z,17.75
2022-11-04T16:50:12.907Z,19.85
2022-11-04T16:51:45.735Z,19.40
2022-11-04T16:53:17.485Z,18.15
2022-11-04T16:54:49.319Z,18.25
2022-11-04T16:56:24.739Z,17.83
2022-11-04T16:58:00.407Z,18.15
2022-11-04T16:59:32.325Z,16.42
2022-11-04T17:01:05.512Z,17.65
2022-11-04T17:02:38.656Z,18.05
2022-11-04T17:04:10.823Z,20.23
2022-11-04T17:05:42.576Z,17.02
2022-11-04T17:07:14.388Z,18.02
2022-11-04T17:08:46.707Z,17.20
2022-11-04T17:10:21.627Z,18.92
2022-11-04T17:11:53.902Z,19.08
2022-11-04T17:13:25.656Z,19.27
2022-11-04T17:14:57.428Z,15.05
2022-11-04T17:16:30.221Z,17.45
2022-11-04T17:18:01.976Z,16.65
2022-11-04T17:19:34.976Z,20.10
2022-11-04T17:21:08.547Z,17.30
2022-11-04T17:22:40.603Z,22.27
2022-11-04T17:24:12.893Z,16.98
2022-11-04T17:25:45.417Z,18.77
2022-11-04T17:27:17.152Z,15.07
2022-11-04T17:28:48.894Z,17.20
2022-11-04T17:30:22.090Z,16.23
2022-11-04T17:31:54.016Z,20.10
2022-11-04T17:33:25.803Z,18.83
2022-11-04T17:34:57.616Z,21.60
2022-11-04T17:36:30.369Z,19.73
2022-11-04T17:38:02.107Z,16.60
2022-11-04T17:39:33.836Z,16.65
2022-11-04T17:41:25.921Z,14.57
2022-11-04T17:43:16.433Z,22.55
2022-11-04T17:44:48.408Z,22.27
2022-11-04T17:46:35.128Z,16.67
2022-11-04T17:48:08.021Z,20.25
2022-11-04T17:49:39.784Z,18.23
2022-11-04T17:51:11.533Z,18.33
2022-11-04T17:52:44.180Z,17.92
2022-11-04T17:54:16.548Z,17.35
2022-11-04T17:55:48.282Z,15.50
2022-11-04T17:57:20.052Z,16.10
2022-11-04T17:58:52.467Z,15.43
2022-11-04T18:00:29.767Z,17.40
2022-11-04T18:02:01.929Z,16.85
2022-11-04T18:03:33.772Z,14.80
2022-11-04T18:05:07.143Z,18.52
2022-11-04T18:06:39.758Z,16.92
2022-11-04T18:08:11.625Z,17.77
2022-11-04T18:09:43.396Z,17.17
2022-11-04T18:11:35.535Z,16.10
2022-11-04T18:13:07.688Z,19.20
2022-11-04T18:14:39.869Z,15.52
2022-11-04T18:16:13.786Z,16.15
2022-11-04T18:17:46.101Z,15.48
2022-11-04T18:19:23.053Z,18.70
2022-11-04T18:21:03.212Z,17.67
2022-11-04T18:22:35.551Z,15.57
2022-11-04T18:24:08.209Z,18.15
2022-11-04T18:25:42.925Z,15.85
2022-11-04T18:27:16.441Z,16.67
2022-11-04T18:28:48.205Z,17.17
2022-11-04T18:30:20.063Z,14.95
2022-11-04T18:31:51.834Z,15.55
2022-11-04T18:33:23.568Z,18.42
2022-11-04T18:34:55.316Z,16.58
2022-11-04T18:36:27.981Z,16.52
2022-11-04T18:37:59.807Z,18.08
2022-11-04T18:39:31.562Z,16.02
2022-11-04T18:41:03.448Z,20.25
2022-11-04T18:42:36.241Z,16.27
2022-11-04T18:44:12.793Z,16.73
2022-11-04T18:45:44.535Z,17.63
2022-11-04T18:47:16.312Z,17.42
2022-11-04T18:48:50.357Z,16.15
2022-11-04T18:50:22.156Z,19.40
2022-11-04T18:51:53.891Z,21.25
2022-11-04T18:53:27.143Z,16.55
2022-11-04T18:54:59.136Z,17.80
2022-11-04T18:56:31.068Z,19.55
2022-11-04T18:58:03.256Z,15.65
2022-11-04T18:59:35.041Z,16.50
2022-11-04T19:01:14.643Z,17.45
2022-11-04T19:02:46.559Z,14.55
2022-11-04T19:04:18.652Z,15.95
2022-11-04T19:05:50.427Z,19.55
2022-11-04T19:07:22.253Z,18.80
2022-11-04T19:08:59.705Z,16.60
2022-11-04T19:10:51.718Z,17.52
2022-11-04T19:12:48.492Z,18.92
2022-11-04T19:14:20.258Z,21.65
2022-11-04T19:15:52.074Z,18.05
2022-11-04T19:17:23.827Z,16.90
2022-11-04T19:18:59.321Z,17.52
2022-11-04T19:20:31.124Z,18.15
2022-11-04T19:22:02.881Z,18.77
2022-11-04T19:23:35.185Z,16.75
2022-11-04T19:25:07.591Z,20.60
2022-11-04T19:26:41.035Z,19.10
2022-11-04T19:28:34.680Z,18.60
2022-11-04T19:30:05.606Z,24.15
2022-11-04T19:31:38.589Z,19.00
2022-11-04T19:33:10.801Z,18.95
2022-11-04T19:34:43.360Z,17.23
2022-11-04T19:36:17.526Z,19.80
2022-11-04T19:37:49.469Z,20.58
2022-11-04T19:39:21.254Z,19.70
2022-11-04T19:40:54.118Z,17.48
2022-11-04T19:42:44.462Z,20.00
2022-11-04T19:44:18.591Z,19.77
2022-11-04T19:45:50.578Z,18.23
2022-11-04T19:47:22.496Z,18.00
2022-11-04T19:48:56.378Z,18.15
2022-11-04T19:50:28.249Z,18.60
2022-11-04T19:52:00.223Z,16.63
2022-11-04T19:53:31.972Z,21.20
2022-11-04T19:55:03.906Z,22.20
2022-11-04T19:56:36.592Z,17.80
2022-11-04T19:58:08.696Z,17.08
2022-11-04T19:59:40.694Z,20.05
2022-11-04T20:01:14.045Z,20.48
2022-11-04T20:02:45.895Z,19.83
2022-11-04T20:04:18.024Z,19.30
2022-11-04T20:05:49.806Z,21.23
2022-11-04T20:07:21.544Z,18.73
2022-11-04T20:08:53.271Z,18.88
2022-11-04T20:10:25.039Z,20.05
2022-11-04T20:12:15.196Z,17.33
2022-11-04T20:13:48.018Z,18.67
2022-11-04T20:15:19.905Z,19.10
2022-11-04T20:16:51.676Z,20.48
2022-11-04T20:18:23.442Z,19.17
2022-11-04T20:19:55.210Z,18.48
2022-11-04T20:21:31.217Z,21.70
2022-11-04T20:23:02.977Z,21.15
2022-11-04T20:24:34.745Z,20.58
2022-11-04T20:26:09.159Z,20.02
2022-11-04T20:27:40.954Z,19.38
2022-11-04T20:29:13.081Z,22.40
2022-11-04T20:30:44.856Z,21.95
2022-11-04T20:32:16.609Z,19.00
2022-11-04T20:33:49.699Z,15.95
2022-11-04T20:35:21.856Z,18.70
2022-11-04T20:36:53.932Z,21.33
2022-11-04T20:38:25.679Z,17.48
2022-11-04T20:39:57.551Z,23.13
2022-11-04T20:41:29.960Z,20.05
2022-11-04T20:43:04.756Z,17.48
2022-11-04T20:44:36.627Z,21.08
2022-11-04T20:46:15.220Z,19.67
2022-11-04T20:47:47.259Z,22.65
2022-11-04T20:49:19.073Z,19.35
2022-11-04T20:50:50.823Z,20.38
2022-11-04T20:52:22.608Z,20.65
2022-11-04T20:53:56.397Z,23.13
2022-11-04T20:55:28.299Z,21.48
2022-11-04T20:57:00.045Z,20.15
2022-11-04T20:58:35.497Z,16.60
2022-11-04T21:00:08.871Z,21.27
2022-11-04T21:01:43.290Z,23.08
2022-11-04T21:03:15.176Z,19.48
2022-11-04T21:04:46.932Z,21.67
2022-11-04T21:06:20.208Z,18.67
2022-11-04T21:07:51.956Z,20.73